Time;durP1;ratioP1;P1;durP2;ratioP2;P2;SDS_P1;SDS_P2;PMS_P1;PMS_P2;Temp;Humidity;BMP_temperature;BMP_pressure;BME280_temperature;BME280_humidity;BME280_pressure;Samples;Min_cycle;Max_cycle;Signal;HPM_P1;HPM_P2
2023/03/17 00:01:50;;;;;;;53.00;18.63;;;1.60;80.10;;;;;;6107425;23;20026;-80
2023/03/17 00:04:18;;;;;;;44.47;16.27;;;1.60;80.20;;;;;;6156061;23;20021;-80
2023/03/17 00:06:46;;;;;;;62.20;20.15;;;1.80;81.00;;;;;;6155081;23;20727;-80
2023/03/17 00:09:16;;;;;;;59.42;20.55;;;1.70;81.20;;;;;;6156310;23;20665;-80
2023/03/17 00:11:45;;;;;;;55.75;19.38;;;1.30;80.80;;;;;;6157711;23;20041;-80
2023/03/17 00:14:13;;;;;;;60.38;20.15;;;1.60;80.60;;;;;;6132398;23;20036;-80
2023/03/17 00:16:43;;;;;;;60.35;20.70;;;1.70;81.20;;;;;;6157940;23;20112;-80
2023/03/17 00:19:20;;;;;;;70.70;20.80;;;1.50;81.60;;;;;;6156052;23;20044;-80
2023/03/17 00:21:48;;;;;;;61.50;21.42;;;1.50;81.40;;;;;;6132700;23;20025;-80
2023/03/17 00:24:16;;;;;;;57.60;20.83;;;1.60;81.60;;;;;;6156802;23;20014;-79
2023/03/17 00:26:58;;;;;;;73.75;24.00;;;1.50;81.80;;;;;;6135377;23;20026;-80
2023/03/17 00:29:25;;;;;;;70.80;22.33;;;1.30;81.30;;;;;;6157568;23;20077;-79
2023/03/17 00:31:55;;;;;;;72.22;23.30;;;1.50;82.70;;;;;;6157079;23;20949;-80
2023/03/17 00:34:23;;;;;;;77.70;25.58;;;1.00;82.40;;;;;;6132462;23;20064;-80
2023/03/17 00:36:51;;;;;;;79.28;25.30;;;1.00;82.60;;;;;;6132400;23;20709;-80
2023/03/17 00:39:18;;;;;;;70.90;22.48;;;1.40;83.20;;;;;;6132289;23;20031;-80
2023/03/17 00:41:46;;;;;;;60.30;20.88;;;1.20;83.30;;;;;;6157130;23;20025;-80
2023/03/17 00:44:16;;;;;;;56.38;21.30;;;1.50;83.30;;;;;;6156960;23;20017;-80
2023/03/17 00:46:46;;;;;;;65.95;20.83;;;1.30;83.30;;;;;;6131956;23;20484;-79
2023/03/17 00:49:19;;;;;;;68.60;21.33;;;1.30;83.10;;;;;;6132288;23;20014;-79
2023/03/17 00:51:48;;;;;;;66.63;22.92;;;1.20;82.90;;;;;;6131306;23;20049;-80
2023/03/17 00:54:18;;;;;;;71.55;25.98;;;1.20;82.90;;;;;;6130756;23;20630;-80
2023/03/17 00:56:47;;;;;;;79.25;26.58;;;1.10;82.80;;;;;;6131529;23;20025;-79
2023/03/17 00:59:26;;;;;;;79.35;27.20;;;1.10;83.30;;;;;;6131448;23;20024;-80
2023/03/17 01:01:55;;;;;;;67.72;24.23;;;1.00;83.20;;;;;;6131524;23;20018;-79
2023/03/17 01:04:22;;;;;;;65.50;22.27;;;1.30;83.20;;;;;;6106971;23;20110;-80
2023/03/17 01:06:51;;;;;;;57.35;22.10;;;1.20;83.50;;;;;;6131378;23;20025;-80
2023/03/17 01:09:22;;;;;;;61.47;20.60;;;1.00;83.70;;;;;;6130865;23;20029;-80
2023/03/17 01:11:50;;;;;;;60.15;20.20;;;1.00;83.30;;;;;;6130157;23;20014;-80
2023/03/17 01:14:17;;;;;;;65.05;22.48;;;1.10;83.50;;;;;;6131166;23;20024;-79
2023/03/17 01:16:46;;;;;;;54.33;19.02;;;1.00;83.50;;;;;;6155197;23;20022;-80
2023/03/17 01:19:15;;;;;;;60.05;19.48;;;0.70;83.10;;;;;;6130586;23;20400;-80
2023/03/17 01:21:43;;;;;;;53.60;21.92;;;1.20;83.40;;;;;;6131767;23;20022;-79
2023/03/17 01:24:11;;;;;;;54.58;18.42;;;0.50;83.30;;;;;;6156142;23;20013;-80
2023/03/17 01:26:39;;;;;;;47.67;18.77;;;1.00;83.80;;;;;;6131695;23;20037;-80
2023/03/17 01:29:07;;;;;;;48.30;17.85;;;1.00;84.00;;;;;;6130790;23;20045;-79
2023/03/17 01:31:35;;;;;;;54.75;17.40;;;1.00;83.90;;;;;;6155797;23;20017;-79
2023/03/17 01:34:05;;;;;;;54.40;17.55;;;0.90;84.10;;;;;;6156128;23;20014;-80
2023/03/17 01:36:33;;;;;;;48.92;16.52;;;0.90;84.00;;;;;;6131536;23;20809;-79
2023/03/17 01:39:00;;;;;;;46.85;15.73;;;0.90;83.70;;;;;;6156048;23;20032;-80
2023/03/17 01:41:36;;;;;;;47.15;17.48;;;0.40;83.30;;;;;;6156333;23;20056;-79
2023/03/17 01:44:06;;;;;;;55.55;18.27;;;0.90;84.40;;;;;;6155942;23;20035;-80
2023/03/17 01:46:36;;;;;;;43.78;16.40;;;0.70;84.70;;;;;;6156038;23;20088;-80
2023/03/17 01:49:26;;;;;;;43.95;16.70;;;0.70;84.00;;;;;;6156558;23;20018;-79
2023/03/17 01:52:06;;;;;;;41.53;14.48;;;0.70;84.30;;;;;;6133228;23;20068;-79
2023/03/17 01:54:33;;;;;;;40.63;15.57;;;0.20;84.10;;;;;;6155376;23;20029;-79
2023/03/17 01:57:17;;;;;;;42.00;15.30;;;0.20;84.60;;;;;;6131040;23;20033;-80
2023/03/17 01:59:51;;;;;;;36.50;14.35;;;0.70;84.80;;;;;;6130537;23;20022;-80
2023/03/17 02:02:23;;;;;;;41.38;14.60;;;0.40;84.50;;;;;;6131820;23;20025;-79
2023/03/17 02:04:51;;;;;;;42.00;14.45;;;0.60;84.80;;;;;;6130508;23;20021;-81
2023/03/17 02:07:21;;;;;;;45.40;15.65;;;0.70;84.60;;;;;;6157482;23;20025;-81
2023/03/17 02:09:51;;;;;;;42.97;15.05;;;0.40;84.50;;;;;;6159846;23;20013;-81
2023/03/17 02:12:21;;;;;;;46.35;16.70;;;0.70;84.70;;;;;;6134856;23;20047;-80
2023/03/17 02:14:50;;;;;;;44.75;16.25;;;0.60;85.40;;;;;;6135316;23;20899;-80
2023/03/17 02:17:19;;;;;;;41.72;15.35;;;0.20;84.70;;;;;;6159531;23;20025;-80
2023/03/17 02:19:46;;;;;;;48.42;16.17;;;0.40;85.40;;;;;;6134495;23;20021;-80
2023/03/17 02:22:15;;;;;;;43.70;15.23;;;0.60;85.60;;;;;;6136071;23;20025;-80
2023/03/17 02:24:50;;;;;;;46.05;16.85;;;0.40;85.10;;;;;;6135269;23;20060;-80
2023/03/17 02:27:24;;;;;;;40.13;15.15;;;0.40;84.70;;;;;;6135744;23;20013;-80
2023/03/17 02:29:52;;;;;;;43.55;15.70;;;0.40;84.50;;;;;;6135371;23;20017;-80
2023/03/17 02:32:20;;;;;;;45.72;16.80;;;0.20;84.90;;;;;;6134599;23;20373;-80
2023/03/17 02:34:48;;;;;;;43.70;15.32;;;0.40;85.50;;;;;;6134781;23;20130;-80
2023/03/17 02:37:17;;;;;;;38.15;14.38;;;0.40;85.20;;;;;;6159367;23;20100;-80
2023/03/17 02:39:46;;;;;;;36.47;12.75;;;0.40;85.20;;;;;;6134781;23;20083;-80
2023/03/17 02:42:14;;;;;;;47.00;14.77;;;0.40;85.70;;;;;;6134461;23;20752;-80
2023/03/17 02:44:41;;;;;;;46.22;14.02;;;0.40;85.80;;;;;;6134645;23;20024;-80
2023/03/17 02:47:08;;;;;;;40.45;14.00;;;0.40;85.80;;;;;;6135602;23;20013;-80
2023/03/17 02:49:38;;;;;;;33.33;13.23;;;0.20;86.10;;;;;;6134135;23;20017;-80
2023/03/17 02:52:06;;;;;;;34.33;13.23;;;0.30;85.50;;;;;;6133766;23;20021;-80
2023/03/17 02:54:33;;;;;;;40.15;11.90;;;0.30;85.90;;;;;;6158968;23;20353;-80
2023/03/17 02:57:01;;;;;;;40.50;14.48;;;0.30;86.10;;;;;;6134832;23;20027;-80
2023/03/17 02:59:28;;;;;;;38.90;12.27;;;0.30;86.70;;;;;;6134176;23;20024;-80
2023/03/17 03:01:56;;;;;;;30.75;12.75;;;0.20;86.20;;;;;;6159500;23;20412;-80
2023/03/17 03:04:23;;;;;;;37.15;12.25;;;0.30;86.40;;;;;;6159651;23;20088;-80
2023/03/17 03:06:51;;;;;;;36.38;12.15;;;0.20;86.50;;;;;;6132986;23;20013;-80
2023/03/17 03:09:19;;;;;;;32.78;12.48;;;0.30;86.70;;;;;;6134642;23;20372;-80
2023/03/17 03:11:46;;;;;;;38.10;11.35;;;0.20;86.60;;;;;;6134248;23;20100;-80
2023/03/17 03:14:14;;;;;;;37.75;15.25;;;0.20;86.90;;;;;;6158999;23;20032;-80
2023/03/17 03:16:42;;;;;;;43.83;14.95;;;-0.10;86.60;;;;;;6134378;23;20032;-80
2023/03/17 03:19:09;;;;;;;48.85;15.55;;;0.20;87.10;;;;;;6133307;23;20360;-80
2023/03/17 03:21:37;;;;;;;52.55;17.95;;;0.10;86.30;;;;;;6134419;23;20577;-80
2023/03/17 03:24:05;;;;;;;45.25;16.00;;;0.20;86.40;;;;;;6135789;23;20024;-80
2023/03/17 03:26:32;;;;;;;48.90;16.98;;;0.00;86.10;;;;;;6134100;23;20013;-80
2023/03/17 03:29:01;;;;;;;49.58;16.48;;;0.10;86.70;;;;;;6134614;23;20028;-80
2023/03/17 03:31:28;;;;;;;44.90;15.90;;;0.10;87.00;;;;;;6134453;23;20024;-80
2023/03/17 03:33:55;;;;;;;42.40;15.00;;;0.00;87.20;;;;;;6132420;23;20028;-80
2023/03/17 03:36:24;;;;;;;45.38;14.07;;;0.20;87.00;;;;;;6133484;23;20071;-80
2023/03/17 03:38:53;;;;;;;40.10;14.40;;;-0.20;86.80;;;;;;6134156;23;20449;-80
2023/03/17 03:41:23;;;;;;;29.95;11.30;;;0.00;86.50;;;;;;6158836;23;20025;-80
2023/03/17 03:43:51;;;;;;;34.13;12.80;;;0.00;87.00;;;;;;6133340;23;20396;-80
2023/03/17 03:46:19;;;;;;;35.20;11.82;;;-0.10;86.30;;;;;;6133877;23;20021;-80
2023/03/17 03:48:49;;;;;;;29.30;10.93;;;0.10;86.80;;;;;;6134171;23;20457;-80
2023/03/17 03:51:16;;;;;;;33.05;11.15;;;0.10;87.60;;;;;;6134246;23;20081;-80
2023/03/17 03:53:44;;;;;;;35.85;11.30;;;-0.10;87.40;;;;;;6134340;23;20686;-80
2023/03/17 03:56:11;;;;;;;31.92;11.88;;;-0.10;87.30;;;;;;6134846;23;20112;-80
2023/03/17 03:58:39;;;;;;;27.98;9.93;;;-0.10;87.60;;;;;;6133674;23;20095;-80
2023/03/17 04:01:08;;;;;;;30.30;10.35;;;-0.10;88.40;;;;;;6132865;23;20021;-80
2023/03/17 04:03:37;;;;;;;26.70;10.80;;;-0.60;87.50;;;;;;6157499;23;20068;-80
2023/03/17 04:06:05;;;;;;;32.95;10.70;;;-0.50;87.00;;;;;;6134120;23;20452;-80
2023/03/17 04:08:32;;;;;;;31.42;10.80;;;-0.30;87.60;;;;;;6134460;23;20021;-80
2023/03/17 04:10:59;;;;;;;27.40;11.55;;;-0.20;88.00;;;;;;6134863;23;20052;-80
2023/03/17 04:13:27;;;;;;;27.48;9.95;;;-0.60;88.20;;;;;;6133872;23;20444;-80
2023/03/17 04:15:55;;;;;;;31.35;10.05;;;-0.50;88.70;;;;;;6133528;23;20044;-80
2023/03/17 04:18:22;;;;;;;24.55;9.68;;;-0.30;88.30;;;;;;6158129;23;20017;-80
2023/03/17 04:20:50;;;;;;;32.40;11.52;;;-0.30;88.40;;;;;;6134206;23;20029;-80
2023/03/17 04:23:17;;;;;;;26.35;9.30;;;-0.50;88.00;;;;;;6134457;23;20092;-80
2023/03/17 04:25:45;;;;;;;23.17;9.45;;;-0.40;88.40;;;;;;6134607;23;20028;-80
2023/03/17 04:28:13;;;;;;;28.85;10.85;;;-0.10;88.40;;;;;;6160317;23;20023;-80
2023/03/17 04:30:40;;;;;;;30.70;9.50;;;-0.40;89.60;;;;;;6136269;23;20750;-80
2023/03/17 04:33:08;;;;;;;24.70;9.80;;;-0.50;88.90;;;;;;6138428;23;20023;-80
2023/03/17 04:35:38;;;;;;;25.95;9.18;;;-0.80;88.50;;;;;;6158640;23;20025;-80
2023/03/17 04:38:11;;;;;;;29.45;9.20;;;-0.40;89.00;;;;;;6163621;23;20040;-80
2023/03/17 04:40:40;;;;;;;30.15;10.15;;;-0.30;88.50;;;;;;6136166;23;20083;-80
2023/03/17 04:43:10;;;;;;;26.50;10.27;;;-0.30;88.70;;;;;;6135874;23;20537;-80
2023/03/17 04:45:38;;;;;;;25.30;9.20;;;-0.60;88.60;;;;;;6139386;23;20017;-80
2023/03/17 04:48:05;;;;;;;27.23;10.90;;;-0.60;88.60;;;;;;6136614;23;20013;-80
2023/03/17 04:50:33;;;;;;;28.98;10.05;;;-0.20;89.50;;;;;;6136942;23;20024;-80
2023/03/17 04:53:00;;;;;;;22.55;9.50;;;-0.40;89.20;;;;;;6136012;23;20085;-80
2023/03/17 04:55:28;;;;;;;32.25;10.98;;;-0.90;89.40;;;;;;6160733;23;20029;-80
2023/03/17 04:57:55;;;;;;;33.28;10.73;;;-0.60;89.00;;;;;;6135399;23;20104;-80
2023/03/17 05:00:23;;;;;;;35.35;12.73;;;-0.30;88.70;;;;;;6136183;23;20028;-80
2023/03/17 05:02:50;;;;;;;34.28;13.20;;;-0.30;88.50;;;;;;6135712;23;20029;-80
2023/03/17 05:05:17;;;;;;;30.98;12.10;;;-0.60;89.00;;;;;;6135603;23;20411;-80
2023/03/17 05:07:45;;;;;;;33.78;12.02;;;-0.40;89.00;;;;;;6133438;23;20024;-80
2023/03/17 05:10:13;;;;;;;34.97;12.18;;;-0.40;89.40;;;;;;6149523;23;20055;-81
2023/03/17 05:12:45;;;;;;;29.38;11.43;;;-0.50;89.40;;;;;;6151839;23;20033;-81
2023/03/17 05:15:43;;;;;;;33.00;11.50;;;-0.30;89.90;;;;;;6152697;23;20097;-81
2023/03/17 05:18:35;;;;;;;35.30;10.98;;;-0.40;89.80;;;;;;6109489;23;20181;-81
2023/03/17 05:21:06;;;;;;;34.80;11.85;;;-0.40;89.90;;;;;;6108924;23;20046;-81
2023/03/17 05:24:05;;;;;;;27.00;10.88;;;-0.40;90.00;;;;;;6035046;23;20019;-81
2023/03/17 05:26:40;;;;;;;35.28;13.50;;;-0.50;89.90;;;;;;6027336;23;20539;-81
2023/03/17 05:29:08;;;;;;;34.10;12.68;;;-0.50;90.10;;;;;;6024284;23;20029;-81
2023/03/17 05:31:36;;;;;;;29.42;12.20;;;-0.40;90.70;;;;;;6020752;23;20027;-81
2023/03/17 05:34:06;;;;;;;29.75;11.77;;;-0.80;90.40;;;;;;6017715;23;20027;-81
2023/03/17 05:36:35;;;;;;;25.95;10.73;;;-0.40;90.50;;;;;;6019378;23;20035;-81
2023/03/17 05:39:06;;;;;;;26.27;11.75;;;-0.30;90.80;;;;;;6020457;23;20034;-81
2023/03/17 05:41:33;;;;;;;21.27;10.07;;;-0.20;90.70;;;;;;6019787;23;20052;-81
2023/03/17 05:47:25;;;;;;;27.90;10.52;;;-0.30;90.60;;;;;;6147498;23;20017;-80
2023/03/17 05:50:04;;;;;;;37.53;12.73;;;-0.20;90.80;;;;;;6126807;23;20079;-80
2023/03/17 05:52:34;;;;;;;49.17;12.23;;;-0.50;90.40;;;;;;6150246;23;20068;-80
2023/03/17 05:55:35;;;;;;;41.33;13.50;;;-0.20;90.20;;;;;;6086024;23;20028;-80
2023/03/17 05:58:22;;;;;;;36.03;12.02;;;-0.10;90.30;;;;;;6137949;23;20040;-80
2023/03/17 06:01:51;;;;;;;31.05;10.25;;;-0.10;90.50;;;;;;6045711;23;20056;-80
2023/03/17 06:04:29;;;;;;;49.80;16.25;;;0.20;90.70;;;;;;6063290;23;20022;-80
2023/03/17 06:07:17;;;;;;;47.25;17.20;;;0.20;90.20;;;;;;6034978;23;20050;-80
2023/03/17 06:10:34;;;;;;;53.20;18.88;;;0.00;90.00;;;;;;5959725;23;20016;-80
2023/03/17 06:13:35;;;;;;;48.00;18.00;;;0.40;88.90;;;;;;5959542;24;20016;-80
2023/03/17 06:16:57;;;;;;;38.22;14.57;;;0.70;88.30;;;;;;5941077;24;20035;-80
2023/03/17 06:19:46;;;;;;;40.13;14.75;;;0.60;87.60;;;;;;5928051;24;20025;-80
2023/03/17 06:22:20;;;;;;;31.45;13.35;;;0.90;86.90;;;;;;5920636;24;20025;-80
2023/03/17 06:24:52;;;;;;;35.08;13.52;;;0.90;86.30;;;;;;5933364;24;20056;-80
2023/03/17 06:27:43;;;;;;;29.40;12.13;;;1.20;86.00;;;;;;5907430;24;20025;-80
2023/03/17 06:30:12;;;;;;;29.80;12.32;;;1.20;85.50;;;;;;5890136;24;20026;-80
2023/03/17 06:32:40;;;;;;;29.13;11.55;;;1.30;84.60;;;;;;5911337;24;20060;-80
2023/03/17 06:35:28;;;;;;;32.17;11.52;;;1.40;83.90;;;;;;5950908;24;20028;-80
2023/03/17 06:37:59;;;;;;;25.25;11.55;;;1.50;83.20;;;;;;5993936;23;20095;-80
2023/03/17 06:40:29;;;;;;;27.40;11.43;;;1.80;83.00;;;;;;5995036;23;20054;-80
2023/03/17 06:44:06;;;;;;;26.50;13.48;;;1.40;81.90;;;;;;5983387;23;20032;-80
2023/03/17 06:47:33;;;;;;;25.65;11.10;;;2.00;82.20;;;;;;5904356;24;20017;-79
2023/03/17 06:51:06;;;;;;;25.52;10.48;;;1.90;82.20;;;;;;5897143;24;20034;-80
2023/03/17 07:23:55;;;;;;;7.53;3.97;;;4.30;77.70;;;;;;6084656;23;21331;-80
2023/03/17 07:29:34;;;;;;;12.93;3.50;;;4.60;76.30;;;;;;6181272;23;20016;-81
2023/03/17 07:36:12;;;;;;;11.45;3.65;;;5.00;74.50;;;;;;6187353;23;20017;-81
2023/03/17 07:38:45;;;;;;;7.00;2.58;;;5.10;73.90;;;;;;6203767;23;20088;-81
2023/03/17 07:48:41;;;;;;;7.03;3.00;;;5.50;72.20;;;;;;6145854;23;20062;-79
2023/03/17 08:02:18;;;;;;;7.45;2.00;;;5.90;68.10;;;;;;6170068;23;20049;-79
2023/03/17 08:32:22;;;;;;;6.07;1.70;;;7.10;62.80;;;;;;6158499;23;20025;-80
2023/03/17 08:35:36;;;;;;;3.67;1.57;;;7.10;62.40;;;;;;6127373;23;21030;31
2023/03/17 08:38:07;;;;;;;5.57;1.65;;;7.30;62.50;;;;;;6147777;23;20133;-80
2023/03/17 08:41:11;;;;;;;3.15;1.27;;;7.20;62.30;;;;;;6148366;23;20052;-80
2023/03/17 08:43:42;;;;;;;4.30;1.55;;;7.50;60.20;;;;;;6136921;23;20525;-80
2023/03/17 08:46:25;;;;;;;3.15;1.15;;;7.60;60.10;;;;;;6120310;23;21102;31
2023/03/17 08:49:55;;;;;;;3.15;0.85;;;7.50;58.70;;;;;;6124454;23;20046;-80
2023/03/17 08:55:50;;;;;;;2.65;0.75;;;7.70;58.40;;;;;;6117551;23;20014;31
2023/03/17 08:58:30;;;;;;;5.45;0.80;;;7.70;59.40;;;;;;5991746;23;20012;31
2023/03/17 09:01:03;;;;;;;5.80;0.95;;;7.90;59.40;;;;;;6078817;23;20021;-80
2023/03/17 09:09:39;;;;;;;2.00;0.77;;;8.20;56.50;;;;;;6070657;23;20347;-80
2023/03/17 09:12:27;;;;;;;1.88;0.47;;;8.10;54.50;;;;;;6070591;23;20009;-80
2023/03/17 09:23:34;;;;;;;2.70;0.90;;;8.40;52.40;;;;;;6136536;23;20694;31
2023/03/17 09:26:05;;;;;;;3.80;0.80;;;8.60;54.00;;;;;;6107910;23;19999;-80
2023/03/17 09:37:40;;;;;;;5.32;1.02;;;8.80;51.90;;;;;;6160831;23;20021;-81
2023/03/17 09:41:06;;;;;;;2.72;0.70;;;8.80;53.20;;;;;;6043225;23;20049;-80
2023/03/17 09:47:34;;;;;;;5.45;1.20;;;9.00;50.70;;;;;;6136011;23;20060;-80
2023/03/17 09:50:43;;;;;;;3.88;1.08;;;9.00;52.00;;;;;;6084926;23;20041;31
2023/03/17 09:53:58;;;;;;;3.65;1.27;;;9.10;52.60;;;;;;6099427;23;20048;-79
2023/03/17 09:56:55;;;;;;;3.88;1.20;;;9.00;52.80;;;;;;6113402;23;20415;-79
2023/03/17 09:59:35;;;;;;;4.78;1.70;;;9.20;54.20;;;;;;6048438;23;20030;-79
2023/03/17 10:05:33;;;;;;;7.00;1.20;;;9.60;54.20;;;;;;6136684;23;20029;-80
2023/03/17 10:19:17;;;;;;;3.30;0.82;;;9.60;51.50;;;;;;6162360;23;20349;31
2023/03/17 10:38:21;;;;;;;4.05;0.70;;;10.30;53.60;;;;;;6140034;23;20056;-80
2023/03/17 10:41:12;;;;;;;2.97;0.90;;;10.40;52.50;;;;;;6096377;23;20010;-81
2023/03/17 11:20:42;;;;;;;2.55;1.00;;;10.50;50.00;;;;;;6148126;23;20065;-80
2023/03/17 12:06:50;;;;;;;4.60;1.60;;;11.40;48.40;;;;;;6146262;23;20032;-80
2023/03/17 12:09:34;;;;;;;3.63;1.30;;;11.20;47.10;;;;;;6129794;23;20036;-80
2023/03/17 12:12:16;;;;;;;3.95;1.45;;;11.20;46.90;;;;;;6136569;23;20029;-80
2023/03/17 12:34:35;;;;;;;3.03;1.42;;;11.70;47.40;;;;;;6145739;23;20147;-80
2023/03/17 12:54:53;;;;;;;3.60;1.13;;;11.40;45.90;;;;;;6136773;23;20021;31
2023/03/17 12:57:28;;;;;;;3.92;1.60;;;11.70;47.90;;;;;;6139903;23;20628;-81
2023/03/17 13:00:09;;;;;;;3.40;1.40;;;11.70;48.10;;;;;;6128033;23;20030;-80
2023/03/17 13:10:10;;;;;;;3.72;1.33;;;11.80;47.90;;;;;;6038384;23;1825910;-80
2023/03/17 13:34:31;;;;;;;2.95;0.98;;;11.90;49.50;;;;;;6080381;23;20037;-79
2023/03/17 13:37:58;;;;;;;3.35;1.30;;;11.70;49.50;;;;;;6026051;23;20023;-80
2023/03/17 13:47:26;;;;;;;3.80;1.38;;;11.70;50.70;;;;;;6159349;23;20020;-78
2023/03/17 13:50:17;;;;;;;4.40;1.52;;;11.50;48.60;;;;;;6116749;23;20254;-81
2023/03/17 13:53:09;;;;;;;3.42;1.23;;;11.50;48.50;;;;;;6113348;23;20529;-81
2023/03/17 14:09:33;;;;;;;6.00;0.95;;;11.40;47.10;;;;;;6135764;23;20043;-79
2023/03/17 14:12:11;;;;;;;3.70;1.55;;;11.20;47.60;;;;;;6126136;23;20017;-80
2023/03/17 14:15:07;;;;;;;6.30;3.17;;;11.40;47.80;;;;;;6104839;23;20466;-80
2023/03/17 14:18:14;;;;;;;4.43;2.08;;;11.30;46.70;;;;;;6111522;23;20554;-80
2023/03/17 14:26:49;;;;;;;2.95;1.45;;;11.30;47.90;;;;;;6165489;23;20081;-80
2023/03/17 14:29:20;;;;;;;3.15;1.08;;;11.30;46.60;;;;;;6125764;23;20021;-80
2023/03/17 14:39:07;;;;;;;3.15;1.10;;;10.90;46.80;;;;;;6114419;23;20049;-81
2023/03/17 14:42:04;;;;;;;4.03;1.70;;;11.00;47.30;;;;;;6115335;23;20049;-80
2023/03/17 14:48:04;;;;;;;5.72;1.52;;;10.70;45.90;;;;;;6172894;23;20321;-81
2023/03/17 15:07:50;;;;;;;5.85;2.15;;;10.70;50.30;;;;;;6123916;23;20086;-80
2023/03/17 15:20:45;;;;;;;4.35;1.58;;;10.60;49.60;;;;;;6136341;23;20025;-80
2023/03/17 15:27:15;;;;;;;4.90;1.90;;;10.60;49.40;;;;;;6135640;23;20063;31
2023/03/17 15:29:43;;;;;;;5.63;1.95;;;10.50;49.40;;;;;;6091323;23;20116;-80
2023/03/17 15:59:57;;;;;;;7.90;1.98;;;9.80;51.50;;;;;;6151195;23;20039;-80
2023/03/17 17:47:40;;;;;;;11.23;3.78;;;7.20;59.70;;;;;;6123471;23;20029;-80
2023/03/17 19:13:57;;;;;;;33.88;9.88;;;5.90;63.00;;;;;;6168934;23;20033;-81
2023/03/17 19:16:27;;;;;;;38.35;9.55;;;5.70;63.00;;;;;;6071365;23;20022;-81
2023/03/17 19:19:01;;;;;;;26.92;9.82;;;5.50;63.30;;;;;;6034868;23;20523;-81
2023/03/17 19:21:39;;;;;;;24.35;10.25;;;5.70;63.20;;;;;;5991238;23;20072;-81
2023/03/17 19:24:19;;;;;;;22.60;10.38;;;5.60;63.50;;;;;;6014907;23;20023;-81
2023/03/17 19:26:51;;;;;;;22.83;10.18;;;5.70;64.20;;;;;;6057208;23;20003;-81
2023/03/17 19:29:26;;;;;;;24.42;10.60;;;5.60;64.30;;;;;;6034837;23;20087;-81
2023/03/17 19:32:16;;;;;;;40.58;13.85;;;5.50;64.60;;;;;;5984241;24;20024;-81
2023/03/17 19:34:46;;;;;;;34.42;12.70;;;5.40;65.10;;;;;;5955446;24;20016;-81
2023/03/17 19:37:25;;;;;;;24.02;9.38;;;5.40;65.30;;;;;;5958258;24;20042;-81
2023/03/17 19:40:12;;;;;;;23.80;8.18;;;5.30;65.30;;;;;;5972491;24;20043;-81
2023/03/17 19:43:38;;;;;;;23.65;8.85;;;5.40;65.20;;;;;;5975493;23;20034;-81
2023/03/17 19:46:23;;;;;;;28.30;9.95;;;5.20;65.00;;;;;;5873315;24;20013;-81
2023/03/17 19:49:10;;;;;;;35.65;12.40;;;5.30;65.20;;;;;;5920327;24;20035;-82
2023/03/17 19:51:45;;;;;;;35.38;12.98;;;5.00;65.30;;;;;;5878996;24;20032;-82
2023/03/17 19:54:36;;;;;;;34.40;12.30;;;5.10;66.20;;;;;;5901445;24;20026;-82
2023/03/17 19:57:13;;;;;;;39.28;14.57;;;4.70;65.70;;;;;;5898915;24;20050;-81
2023/03/17 19:59:54;;;;;;;43.08;15.75;;;5.00;66.10;;;;;;5900036;24;20025;-81
2023/03/17 20:02:36;;;;;;;36.70;13.95;;;5.10;66.20;;;;;;5899117;24;20112;-81
2023/03/17 20:05:29;;;;;;;39.97;14.18;;;5.00;66.50;;;;;;5865679;24;20038;-81
